Time;durP1;ratioP1;P1;durP2;ratioP2;P2;SDS_P1;SDS_P2;PMS_P1;PMS_P2;Temp;Humidity;BMP_temperature;BMP_pressure;BME280_temperature;BME280_humidity;BME280_pressure;Samples;Min_cycle;Max_cycle;Signal;HPM_P1;HPM_P2
2023/04/18 00:01:54;;;;;;;5.90;4.40;;;;;;;8.44;99.69;99745.23;105547;1264;74674;-81
2023/04/18 00:04:22;;;;;;;;;;;;;;;8.35;100.00;99741.30;105495;1271;67786;-81
2023/04/18 00:06:51;;;;;;;5.90;4.80;;;;;;;8.30;100.00;99737.48;105577;1264;71532;-81
2023/04/18 00:09:19;;;;;;;5.10;4.60;;;;;;;8.27;100.00;99741.80;105617;1265;61228;-81
2023/04/18 00:11:47;;;;;;;4.90;4.40;;;;;;;8.23;100.00;99737.90;105437;1267;61332;-80
2023/04/18 00:14:15;;;;;;;8.10;4.60;;;;;;;8.24;100.00;99734.18;105458;1268;72562;-81
2023/04/18 00:16:45;;;;;;;7.00;4.40;;;;;;;8.18;100.00;99736.14;105695;1266;69910;-81
2023/04/18 00:19:13;;;;;;;8.60;5.30;;;;;;;8.18;100.00;99731.27;105900;1268;73178;-82
2023/04/18 00:21:43;;;;;;;7.00;4.80;;;;;;;8.22;100.00;99730.23;105632;1266;61327;-81
2023/04/18 00:24:12;;;;;;;7.40;5.30;;;;;;;8.20;100.00;99728.65;105462;1265;61176;-80
2023/04/18 00:26:40;;;;;;;5.60;4.90;;;;;;;8.26;100.00;99730.48;105336;1266;74031;-81
2023/04/18 00:29:08;;;;;;;7.70;4.70;;;;;;;8.30;99.82;99728.23;105353;1269;68854;-81
2023/04/18 00:31:37;;;;;;;4.80;4.30;;;;;;;8.35;99.79;99728.98;105087;1273;72912;-79
2023/04/18 00:34:05;;;;;;;5.30;4.70;;;;;;;8.18;99.85;99726.63;105334;1266;61977;-80
2023/04/18 00:36:33;;;;;;;6.40;4.80;;;;;;;8.04;100.00;99720.55;105369;1266;61462;-79
2023/04/18 00:39:02;;;;;;;7.90;4.70;;;;;;;8.08;100.00;99721.23;105426;1270;73742;-82
2023/04/18 00:41:31;;;;;;;5.80;4.40;;;;;;;8.17;100.00;99718.47;105009;1267;69652;-81
2023/04/18 00:44:00;;;;;;;5.30;4.80;;;;;;;8.12;100.00;99718.05;105143;1267;72541;-81
2023/04/18 00:46:28;;;;;;;7.00;4.90;;;;;;;8.12;100.00;99717.20;105253;1266;61998;-80
2023/04/18 00:48:56;;;;;;;8.00;4.80;;;;;;;8.15;100.00;99720.03;105190;1269;61244;-81
2023/04/18 00:51:26;;;;;;;6.10;4.90;;;;;;;8.22;100.00;99719.48;105242;1267;74787;-81
2023/04/18 00:53:55;;;;;;;5.40;4.30;;;;;;;8.20;100.00;99719.39;105037;1267;69963;-81
2023/04/18 00:56:24;;;;;;;6.40;4.90;;;;;;;8.17;100.00;99718.38;105152;1269;73475;-81
2023/04/18 00:58:53;;;;;;;6.40;4.80;;;;;;;8.06;100.00;99714.70;105250;1267;61416;-80
2023/04/18 01:01:21;;;;;;;;;;;;;;;8.17;100.00;99719.17;105228;1266;61240;-80
2023/04/18 01:03:49;;;;;;;6.40;5.00;;;;;;;8.21;100.00;99718.18;105429;1270;74814;-80
2023/04/18 01:06:18;;;;;;;5.90;4.20;;;;;;;8.12;100.00;99718.31;105323;1269;68002;-79
2023/04/18 01:08:46;;;;;;;;;;;;;;;8.09;100.00;99720.13;105249;1271;72804;-80
2023/04/18 01:11:15;;;;;;;6.20;4.20;;;;;;;8.20;100.00;99718.39;104847;1273;61400;-80
2023/04/18 01:14:00;;;;;;;5.60;4.50;;;;;;;8.23;99.72;99717.12;104940;1268;61375;-81
2023/04/18 01:16:31;;;;;;;5.70;4.80;;;;;;;8.25;99.88;99718.81;107525;1265;75737;-81
2023/04/18 01:19:01;;;;;;;5.20;5.80;;;;;;;8.28;99.52;99715.30;108118;1270;68837;-81
2023/04/18 01:21:30;;;;;;;4.90;4.40;;;;;;;8.28;99.72;99713.58;107667;1266;71955;-81
2023/04/18 01:24:18;;;;;;;5.60;4.50;;;;;;;8.23;100.00;99710.79;105246;1267;61288;-80
2023/04/18 01:26:47;;;;;;;7.80;4.90;;;;;;;8.26;99.72;99710.23;105407;1267;61275;-80
2023/04/18 01:29:19;;;;;;;6.70;5.80;;;;;;;8.34;98.80;99709.75;105425;1267;74782;-80
2023/04/18 01:31:52;;;;;;;7.50;4.90;;;;;;;8.41;98.25;99713.67;105549;1267;69978;-81
2023/04/18 01:34:20;;;;;;;;;;;;;;;8.25;99.63;99711.33;105439;1269;71864;-79
2023/04/18 01:36:48;;;;;;;10.00;4.90;;;;;;;8.40;98.78;99708.54;105338;1269;61272;-80
2023/04/18 01:39:17;;;;;;;5.60;4.80;;;;;;;8.28;99.40;99711.06;105255;1270;61463;-82
2023/04/18 01:41:45;;;;;;;8.30;5.00;;;;;;;8.35;98.68;99707.84;105035;1268;75689;-80
2023/04/18 01:44:13;;;;;;;5.70;5.10;;;;;;;8.31;99.49;99707.02;105258;1266;70271;-81
2023/04/18 01:46:42;;;;;;;7.80;4.40;;;;;;;8.13;100.00;99708.27;105556;1267;73203;-81
2023/04/18 01:49:10;;;;;;;4.50;4.10;;;;;;;8.17;100.00;99709.88;105288;1267;62289;-81
2023/04/18 01:51:38;;;;;;;6.20;4.70;;;;;;;8.19;99.88;99713.45;105307;1268;61312;-81
2023/04/18 01:54:06;;;;;;;6.10;4.70;;;;;;;8.11;100.00;99712.83;105204;1268;72762;-81
2023/04/18 01:56:35;;;;;;;5.50;4.40;;;;;;;7.96;100.00;99711.15;105209;1268;69625;-80
2023/04/18 01:59:03;;;;;;;6.00;5.00;;;;;;;7.90;100.00;99707.17;105289;1270;73721;-81
2023/04/18 02:01:32;;;;;;;4.60;4.30;;;;;;;7.94;100.00;99704.86;105206;1269;62415;-80
2023/04/18 02:04:00;;;;;;;5.00;4.60;;;;;;;7.85;100.00;99709.48;105218;1271;61281;-81
2023/04/18 02:06:29;;;;;;;;;;;;;;;7.93;100.00;99702.85;105258;1268;74942;-81
2023/04/18 02:08:59;;;;;;;6.00;5.30;;;;;;;7.72;100.00;99699.39;105339;1270;68859;-80
2023/04/18 02:11:28;;;;;;;5.40;4.90;;;;;;;7.77;100.00;99699.22;105318;1269;73604;-80
2023/04/18 02:13:58;;;;;;;5.70;4.40;;;;;;;7.73;100.00;99690.64;105106;1266;62225;-81
2023/04/18 02:16:26;;;;;;;7.10;4.80;;;;;;;7.76;100.00;99690.65;105339;1267;61128;-80
2023/04/18 02:18:55;;;;;;;6.60;5.40;;;;;;;7.85;100.00;99694.08;105224;1269;74750;-80
2023/04/18 02:21:23;;;;;;;;;;;;;;;7.78;100.00;99690.81;105336;1268;68131;-82
2023/04/18 02:23:52;;;;;;;6.70;4.70;;;;;;;7.76;100.00;99685.35;105394;1270;72471;-80
2023/04/18 02:26:22;;;;;;;5.00;4.60;;;;;;;7.58;100.00;99688.03;105266;1267;61272;-81
2023/04/18 02:28:52;;;;;;;5.40;4.80;;;;;;;7.63;100.00;99689.02;105361;1267;61282;-81
2023/04/18 02:31:21;;;;;;;5.00;4.60;;;;;;;7.61;100.00;99686.09;105272;1269;75812;-81
2023/04/18 02:33:50;;;;;;;5.40;4.40;;;;;;;7.53;100.00;99685.73;105156;1267;69078;-81
2023/04/18 02:36:22;;;;;;;9.40;5.40;;;;;;;7.61;100.00;99684.38;105105;1268;73144;-81
2023/04/18 02:38:50;;;;;;;;;;;;;;;7.61;100.00;99691.31;105106;1268;61267;-81
2023/04/18 02:41:20;;;;;;;5.60;4.90;;;;;;;7.51;100.00;99691.83;105135;1266;61348;-80
2023/04/18 02:43:48;;;;;;;7.90;5.80;;;;;;;7.52;100.00;99689.55;105338;1267;72249;-81
2023/04/18 02:46:16;;;;;;;7.00;5.10;;;;;;;7.49;100.00;99690.13;105350;1268;69567;-81
2023/04/18 02:48:47;;;;;;;6.30;5.00;;;;;;;7.54;100.00;99692.29;105316;1267;73142;-81
2023/04/18 02:51:15;;;;;;;;;;;;;;;7.45;100.00;99690.30;105403;1267;62004;-81
2023/04/18 02:53:43;;;;;;;5.80;5.20;;;;;;;7.36;100.00;99687.52;105369;1267;61163;-80
2023/04/18 02:56:16;;;;;;;5.30;4.70;;;;;;;7.40;100.00;99687.52;105225;1273;75701;-82
2023/04/18 02:59:03;;;;;;;6.50;4.70;;;;;;;7.48;100.00;99681.33;105342;1268;68684;-81
2023/04/18 03:01:46;;;;;;;7.30;5.40;;;;;;;7.32;100.00;99676.24;105259;1270;72737;-80
2023/04/18 03:04:18;;;;;;;8.00;5.80;;;;;;;7.14;100.00;99675.44;105273;1265;61987;-81
2023/04/18 03:06:57;;;;;;;8.80;5.20;;;;;;;7.13;100.00;99674.34;105203;1268;61391;-80
2023/04/18 03:09:26;;;;;;;5.30;4.70;;;;;;;7.19;100.00;99677.50;105250;1268;169375;-81
2023/04/18 03:11:58;;;;;;;6.40;5.50;;;;;;;7.24;100.00;99677.88;105314;1268;69732;-81
2023/04/18 03:14:27;;;;;;;7.40;5.90;;;;;;;7.08;100.00;99671.86;105450;1267;73376;-82
2023/04/18 03:16:55;;;;;;;;;;;;;;;7.12;100.00;99673.35;105636;1268;61504;-81
2023/04/18 03:19:28;;;;;;;5.90;5.00;;;;;;;7.16;100.00;99674.67;105352;1269;61278;-81
2023/04/18 03:21:58;;;;;;;5.50;4.60;;;;;;;7.15;100.00;99673.73;105330;1268;75132;-85
2023/04/18 03:24:27;;;;;;;8.50;5.60;;;;;;;7.22;100.00;99674.98;105413;1268;69218;-82
2023/04/18 03:26:58;;;;;;;10.20;6.20;;;;;;;7.24;100.00;99677.17;105286;1268;73621;-80
2023/04/18 03:29:27;;;;;;;12.60;5.80;;;;;;;7.05;100.00;99679.47;105276;1271;61994;-81
2023/04/18 03:31:56;;;;;;;13.80;6.00;;;;;;;7.12;100.00;99681.83;105301;1269;61262;-79
2023/04/18 03:34:24;;;;;;;10.00;6.00;;;;;;;7.07;100.00;99682.35;105333;1269;75239;-81
2023/04/18 03:36:52;;;;;;;6.40;5.50;;;;;;;7.13;100.00;99688.23;105434;1268;68723;-81
2023/04/18 03:39:24;;;;;;;5.70;5.10;;;;;;;7.19;100.00;99689.26;105334;1268;73146;-81
2023/04/18 03:41:53;;;;;;;8.60;5.90;;;;;;;7.22;100.00;99690.41;105410;1268;63397;-80
2023/04/18 03:44:21;;;;;;;9.90;6.60;;;;;;;7.25;100.00;99691.26;105244;1268;61247;-80
2023/04/18 03:46:49;;;;;;;8.30;6.20;;;;;;;7.18;100.00;99690.75;105252;1268;73127;-80
2023/04/18 03:49:18;;;;;;;7.50;6.00;;;;;;;7.11;100.00;99690.52;105332;1268;69681;-81
2023/04/18 03:51:49;;;;;;;10.60;7.00;;;;;;;7.32;100.00;99698.45;105359;1269;72971;-79
2023/04/18 03:54:17;;;;;;;7.40;5.50;;;;;;;7.55;100.00;99693.09;105354;1265;61986;-79
2023/04/18 03:56:46;;;;;;;8.00;5.40;;;;;;;7.61;100.00;99692.83;105318;1267;61133;-79
2023/04/18 03:59:14;;;;;;;7.90;5.10;;;;;;;7.49;100.00;99691.51;105190;1265;73396;-81
2023/04/18 04:01:45;;;;;;;7.70;5.20;;;;;;;7.60;100.00;99696.47;105090;1265;69090;-79
2023/04/18 04:04:14;;;;;;;6.70;5.40;;;;;;;7.65;100.00;99696.38;105097;1265;72481;-78
2023/04/18 04:06:43;;;;;;;6.20;4.90;;;;;;;7.87;100.00;99691.40;105180;1265;62044;-81
2023/04/18 04:09:11;;;;;;;5.40;4.80;;;;;;;7.79;100.00;99697.26;105165;1270;61311;-79
2023/04/18 04:11:39;;;;;;;10.10;5.50;;;;;;;7.78;100.00;99700.73;105218;1265;73110;-80
2023/04/18 04:14:09;;;;;;;6.00;5.40;;;;;;;7.74;100.00;99702.89;105325;1265;68609;-79
2023/04/18 04:16:41;;;;;;;6.80;5.40;;;;;;;7.96;100.00;99705.32;105176;1265;73464;-81
2023/04/18 04:19:10;;;;;;;6.50;4.80;;;;;;;8.13;100.00;99709.41;105018;1265;61360;-79
2023/04/18 04:21:43;;;;;;;5.80;4.90;;;;;;;8.22;100.00;99712.38;105164;1265;61166;-83
2023/04/18 04:24:14;;;;;;;9.30;5.60;;;;;;;8.25;100.00;99714.32;108223;1265;74183;-79
2023/04/18 04:26:49;;;;;;;7.00;5.40;;;;;;;8.32;100.00;99716.02;107136;1265;68678;-81
2023/04/18 04:29:20;;;;;;;8.20;6.30;;;;;;;8.28;100.00;99718.39;105167;1265;73867;-80
2023/04/18 04:31:49;;;;;;;8.40;6.10;;;;;;;8.33;100.00;99721.17;105181;1270;61191;-81
2023/04/18 04:34:25;;;;;;;9.20;6.80;;;;;;;8.45;100.00;99717.80;105160;1265;61271;-79
2023/04/18 04:36:54;;;;;;;6.90;5.50;;;;;;;8.80;99.06;99721.59;105098;1265;74587;-80
2023/04/18 04:39:23;;;;;;;9.30;6.10;;;;;;;9.21;94.82;99714.24;105262;1265;68029;-81
2023/04/18 04:42:03;;;;;;;9.60;5.60;;;;;;;9.47;91.45;99715.82;105231;1265;73378;-81
2023/04/18 04:44:42;;;;;;;6.00;5.20;;;;;;;9.65;89.09;99715.80;105471;1265;62293;-80
2023/04/18 04:47:11;;;;;;;6.30;4.60;;;;;;;9.77;87.20;99719.22;105296;1271;61246;-81
2023/04/18 04:49:39;;;;;;;11.90;5.10;;;;;;;9.80;85.31;99724.40;105211;1270;74849;-80
2023/04/18 04:52:07;;;;;;;8.60;5.40;;;;;;;9.91;84.97;99726.77;105042;1265;68644;-79
2023/04/18 04:54:36;;;;;;;10.70;5.90;;;;;;;10.09;82.06;99731.13;105084;1270;72372;-81
2023/04/18 04:57:04;;;;;;;11.70;5.60;;;;;;;10.25;82.03;99735.22;105036;1265;61257;-81
2023/04/18 04:59:33;;;;;;;8.90;6.00;;;;;;;10.52;80.37;99738.23;105137;1265;62251;-80
2023/04/18 05:02:01;;;;;;;8.30;5.40;;;;;;;10.86;77.09;99737.23;105122;1265;74925;-80
2023/04/18 05:04:30;;;;;;;8.20;4.80;;;;;;;11.20;74.04;99739.88;104977;1265;69894;-80
2023/04/18 05:06:58;;;;;;;8.00;5.30;;;;;;;11.24;71.64;99740.88;105186;1270;73564;-80
2023/04/18 05:09:26;;;;;;;9.70;5.90;;;;;;;10.88;70.52;99741.63;105081;1265;61359;-78
2023/04/18 05:11:55;;;;;;;11.80;7.90;;;;;;;10.20;75.74;99742.98;105048;1268;61325;-80
2023/04/18 05:14:24;;;;;;;10.80;6.90;;;;;;;9.98;78.43;99741.03;105073;1269;75574;-79
2023/04/18 05:16:52;;;;;;;11.10;7.50;;;;;;;9.77;79.56;99742.68;105048;1269;68320;-80
2023/04/18 05:19:20;;;;;;;14.70;7.70;;;;;;;9.72;81.40;99742.50;105057;1268;72592;-81
2023/04/18 05:21:49;;;;;;;12.40;8.40;;;;;;;9.62;82.59;99743.42;105077;1267;61185;-80
2023/04/18 05:24:17;;;;;;;18.40;13.30;;;;;;;9.69;82.49;99745.90;105120;1270;61244;-80
2023/04/18 05:26:45;;;;;;;18.30;13.20;;;;;;;9.80;82.22;99748.70;105076;1268;74536;-81
2023/04/18 05:29:13;;;;;;;19.80;14.80;;;;;;;9.72;81.55;99745.25;105154;1269;68623;-81
2023/04/18 05:31:41;;;;;;;8.70;7.70;;;;;;;9.55;83.08;99745.55;105121;1266;71678;-79
2023/04/18 05:34:10;;;;;;;10.60;6.70;;;;;;;9.63;82.69;99744.11;105060;1265;61239;-79
2023/04/18 05:36:38;;;;;;;9.20;6.90;;;;;;;9.63;81.50;99742.79;104940;1273;61195;-79
2023/04/18 05:39:06;;;;;;;16.80;7.20;;;;;;;9.74;80.53;99743.06;104927;1269;73934;-79
2023/04/18 05:41:35;;;;;;;10.10;7.50;;;;;;;9.76;80.98;99741.92;104991;1268;69990;-80
2023/04/18 05:44:03;;;;;;;14.50;9.60;;;;;;;9.85;81.65;99738.58;105029;1271;72427;-78
2023/04/18 05:46:33;;;;;;;9.30;7.30;;;;;;;9.95;80.30;99740.35;104752;1268;61461;-78
2023/04/18 05:49:01;;;;;;;10.30;6.70;;;;;;;10.06;77.83;99737.45;104911;1269;61271;-80
2023/04/18 05:51:30;;;;;;;10.90;7.60;;;;;;;10.17;78.19;99741.31;104966;1270;74377;-79
2023/04/18 05:53:58;;;;;;;11.60;6.20;;;;;;;10.09;78.68;99738.64;104910;1267;69161;-81
2023/04/18 05:56:26;;;;;;;11.10;6.90;;;;;;;10.06;78.56;99740.48;104948;1268;72728;-80
2023/04/18 05:58:54;;;;;;;14.60;7.30;;;;;;;10.25;78.64;99739.08;105062;1268;61485;-83
2023/04/18 06:01:23;;;;;;;14.10;8.20;;;;;;;10.45;76.23;99741.10;105027;1267;61268;-83
2023/04/18 06:03:51;;;;;;;10.40;6.40;;;;;;;10.62;77.01;99740.44;105070;1268;74555;-82
2023/04/18 06:06:20;;;;;;;10.90;6.40;;;;;;;10.52;75.27;99742.80;105032;1268;69944;-81
2023/04/18 06:08:48;;;;;;;14.80;7.70;;;;;;;10.27;78.54;99734.75;104941;1267;71452;-80
2023/04/18 06:11:19;;;;;;;11.20;6.90;;;;;;;10.43;79.07;99735.80;104950;1268;61553;-81
2023/04/18 06:13:48;;;;;;;8.90;6.30;;;;;;;10.63;77.66;99739.76;104959;1268;61268;-80
2023/04/18 06:16:16;;;;;;;9.10;6.30;;;;;;;10.64;76.78;99737.85;105756;1267;72751;-80
2023/04/18 06:18:45;;;;;;;13.30;8.50;;;;;;;10.80;78.08;99739.65;105285;1268;69842;-80
2023/04/18 06:21:13;;;;;;;18.70;9.20;;;;;;;10.89;77.87;99745.18;105006;1270;73636;-80
2023/04/18 06:23:41;;;;;;;16.30;8.50;;;;;;;11.05;73.15;99749.92;105058;1268;61707;-81
2023/04/18 06:26:10;;;;;;;24.10;11.40;;;;;;;11.24;73.38;99752.65;105176;1270;61253;-78
2023/04/18 06:28:39;;;;;;;18.60;8.90;;;;;;;11.15;71.72;99751.85;105196;1270;75531;-80
2023/04/18 06:31:07;;;;;;;10.20;5.70;;;;;;;11.14;73.44;99753.09;105349;1268;69641;-79
2023/04/18 06:33:36;;;;;;;13.90;6.30;;;;;;;10.99;73.78;99752.77;105189;1270;72519;-80
2023/04/18 06:36:06;;;;;;;7.30;5.80;;;;;;;10.98;75.29;99753.92;104858;1271;61635;-79
2023/04/18 06:38:34;;;;;;;7.50;5.70;;;;;;;11.05;73.43;99748.58;104974;1271;61334;-79
2023/04/18 06:41:02;;;;;;;7.30;4.90;;;;;;;11.29;72.11;99753.84;105054;1273;75619;-78
2023/04/18 06:43:31;;;;;;;6.60;5.10;;;;;;;11.26;72.90;99752.13;104993;1271;69589;-81
2023/04/18 06:46:03;;;;;;;15.40;6.40;;;;;;;11.29;72.95;99746.69;105044;1270;73609;-79
2023/04/18 06:48:31;;;;;;;9.10;6.30;;;;;;;11.45;72.43;99743.49;104943;1268;61441;-80
2023/04/18 06:51:00;;;;;;;7.60;6.00;;;;;;;11.79;69.42;99741.00;105052;1274;61333;-81
2023/04/18 06:53:28;;;;;;;;;;;;;;;11.81;69.48;99741.07;105131;1273;75525;-79
2023/04/18 06:55:56;;;;;;;19.50;11.10;;;;;;;11.93;70.40;99739.95;105082;1272;68780;-80
2023/04/18 06:58:24;;;;;;;15.70;11.80;;;;;;;12.05;69.45;99745.20;104979;1270;72580;-79
2023/04/18 07:00:53;;;;;;;14.30;9.10;;;;;;;12.37;68.80;99749.34;105034;1271;61710;-80
2023/04/18 07:03:21;;;;;;;;;;;;;;;12.38;67.52;99746.11;105146;1271;61308;-80
2023/04/18 07:05:50;;;;;;;9.20;5.30;;;;;;;12.31;63.43;99746.49;105583;1272;75738;-78
2023/04/18 07:08:19;;;;;;;9.50;6.10;;;;;;;12.12;61.53;99742.07;105457;1270;67920;-79
2023/04/18 07:10:47;;;;;;;9.30;5.70;;;;;;;12.04;62.25;99732.92;105269;1267;72373;-79
2023/04/18 07:13:16;;;;;;;11.00;7.10;;;;;;;12.07;62.08;99728.00;105165;1268;62378;-79
2023/04/18 07:15:44;;;;;;;11.00;7.70;;;;;;;12.05;63.89;99720.78;105278;1267;61269;-80
2023/04/18 07:18:13;;;;;;;19.30;11.20;;;;;;;12.12;64.95;99719.20;105287;1267;74340;-79
2023/04/18 07:20:53;;;;;;;9.30;6.00;;;;;;;12.16;65.00;99732.35;105201;1268;69602;-79
2023/04/18 07:23:22;;;;;;;;;;;;;;;12.09;67.37;99741.84;105064;1271;72659;-80
2023/04/18 07:25:50;;;;;;;13.00;7.40;;;;;;;12.02;68.47;99743.66;105174;1271;61274;-82
2023/04/18 07:28:19;;;;;;;8.90;6.00;;;;;;;11.98;70.33;99740.70;104980;1270;61325;-81
2023/04/18 07:30:47;;;;;;;11.60;6.40;;;;;;;11.90;70.16;99739.33;104925;1270;75030;-80
2023/04/18 07:33:16;;;;;;;12.90;7.10;;;;;;;11.80;70.63;99741.02;106655;1267;69042;-79
2023/04/18 07:35:45;;;;;;;8.90;6.10;;;;;;;11.79;72.00;99746.96;108413;1267;71720;-79
2023/04/18 07:38:15;;;;;;;9.50;5.30;;;;;;;11.92;70.79;99748.75;107497;1267;60662;-79
2023/04/18 07:40:44;;;;;;;7.90;5.80;;;;;;;12.21;68.28;99753.01;106075;1266;61233;-80
2023/04/18 07:43:12;;;;;;;8.60;6.60;;;;;;;12.33;67.45;99757.23;105366;1270;75761;-79
2023/04/18 07:45:42;;;;;;;8.50;5.70;;;;;;;12.28;65.88;99756.39;104926;1271;68517;-80
2023/04/18 07:48:10;;;;;;;14.60;5.90;;;;;;;12.29;66.81;99761.73;105059;1266;73590;-79
2023/04/18 07:50:39;;;;;;;16.30;8.30;;;;;;;12.36;67.54;99761.65;104795;1271;61323;-80
2023/04/18 07:53:07;;;;;;;8.90;5.60;;;;;;;12.47;67.02;99765.11;105082;1269;61361;-80
2023/04/18 07:55:36;;;;;;;8.60;5.80;;;;;;;12.51;65.71;99764.05;105144;1270;75022;-80
2023/04/18 07:58:04;;;;;;;15.30;9.30;;;;;;;12.40;67.64;99765.45;105142;1265;69392;-79
2023/04/18 08:00:35;;;;;;;13.90;7.70;;;;;;;12.47;67.20;99769.03;105138;1270;73321;-78
2023/04/18 08:03:06;;;;;;;12.30;6.70;;;;;;;12.33;64.23;99768.64;105203;1265;61431;-79
2023/04/18 08:05:35;;;;;;;11.40;6.90;;;;;;;12.35;63.18;99770.15;105146;1268;61247;-78
2023/04/18 08:08:05;;;;;;;14.20;7.40;;;;;;;12.21;63.47;99768.23;105077;1269;75502;-79
2023/04/18 08:10:33;;;;;;;11.60;7.10;;;;;;;12.03;65.34;99763.70;104974;1273;68682;-79
2023/04/18 08:13:02;;;;;;;15.30;8.00;;;;;;;12.02;65.00;99763.37;105207;1266;73343;-80
2023/04/18 08:15:31;;;;;;;7.00;6.10;;;;;;;12.21;62.53;99766.51;105193;1265;61285;-79
2023/04/18 08:18:00;;;;;;;9.70;5.70;;;;;;;12.13;62.70;99763.82;105486;1267;61275;-80
2023/04/18 08:20:28;;;;;;;11.40;6.20;;;;;;;12.21;62.91;99763.50;105315;1269;75845;-80
2023/04/18 08:22:56;;;;;;;7.90;5.30;;;;;;;12.20;63.52;99759.58;105255;1269;69824;-81
2023/04/18 08:25:37;;;;;;;9.20;5.90;;;;;;;12.18;63.31;99758.64;105191;1265;72937;-81
2023/04/18 08:28:07;;;;;;;10.30;5.60;;;;;;;12.16;65.12;99759.81;105107;1265;61359;-79
2023/04/18 08:30:35;;;;;;;11.40;6.40;;;;;;;12.36;66.42;99757.30;105173;1270;61359;-79
2023/04/18 08:33:03;;;;;;;10.70;6.30;;;;;;;12.34;67.07;99758.19;105157;1268;75422;-79
2023/04/18 08:35:32;;;;;;;10.90;6.80;;;;;;;12.38;65.81;99756.06;105178;1266;69609;-80
2023/04/18 08:38:01;;;;;;;10.30;7.50;;;;;;;12.41;64.94;99759.64;105151;1269;73670;-80
2023/04/18 08:40:30;;;;;;;12.60;6.80;;;;;;;12.47;61.85;99750.20;105038;1265;61362;-79
2023/04/18 08:42:58;;;;;;;10.90;7.90;;;;;;;12.48;61.78;99753.10;105181;1270;61274;-80
2023/04/18 08:45:27;;;;;;;12.30;7.60;;;;;;;12.54;61.55;99753.52;105134;1265;74921;-79
2023/04/18 08:47:57;;;;;;;12.40;7.80;;;;;;;12.65;62.62;99753.84;105200;1268;68676;-81
2023/04/18 08:50:26;;;;;;;10.20;5.90;;;;;;;12.74;61.62;99754.41;105341;1269;73764;-80
2023/04/18 08:52:54;;;;;;;10.90;5.90;;;;;;;12.91;59.53;99756.69;105259;1270;61269;-80
2023/04/18 08:55:23;;;;;;;10.00;5.70;;;;;;;13.18;57.89;99757.90;105170;1271;61286;-79
2023/04/18 08:57:53;;;;;;;7.80;4.50;;;;;;;13.32;55.46;99753.10;105351;1268;74694;-79
2023/04/18 09:00:22;;;;;;;9.70;5.50;;;;;;;13.40;55.37;99756.67;105185;1265;68903;-79
2023/04/18 09:02:55;;;;;;;9.20;5.20;;;;;;;13.65;53.76;99754.61;105223;1270;72681;-80
2023/04/18 09:05:25;;;;;;;13.10;4.90;;;;;;;13.69;52.86;99750.89;105237;1266;61247;-81
2023/04/18 09:07:54;;;;;;;10.90;5.20;;;;;;;13.73;54.26;99745.77;105138;1267;61569;-79
2023/04/18 09:10:33;;;;;;;8.90;5.00;;;;;;;13.84;54.34;99743.50;105143;1270;75661;-79
2023/04/18 09:13:02;;;;;;;9.80;5.70;;;;;;;13.98;54.15;99745.15;105573;1269;68857;-78
2023/04/18 09:15:33;;;;;;;8.30;4.90;;;;;;;13.97;54.39;99742.04;105402;1271;73350;-80
2023/04/18 09:18:01;;;;;;;9.30;5.40;;;;;;;13.94;54.36;99746.51;105219;1267;61252;-78
2023/04/18 09:20:39;;;;;;;12.90;7.00;;;;;;;14.11;52.91;99745.53;105311;1270;61210;-80
2023/04/18 09:23:09;;;;;;;10.40;7.20;;;;;;;14.14;51.17;99746.02;105034;1273;75529;-80
2023/04/18 09:25:46;;;;;;;10.50;6.90;;;;;;;14.16;51.49;99740.34;105083;1267;69854;-80
2023/04/18 09:28:27;;;;;;;9.00;5.00;;;;;;;14.26;50.26;99744.10;105254;1270;72904;-78
2023/04/18 09:30:56;;;;;;;10.80;5.60;;;;;;;14.35;49.11;99745.75;105052;1269;61428;-81
2023/04/18 09:33:31;;;;;;;8.40;5.20;;;;;;;14.63;47.88;99742.73;105215;1270;61256;-78
2023/04/18 09:36:15;;;;;;;10.90;6.80;;;;;;;14.79;48.77;99741.14;105064;1276;73585;-80
2023/04/18 09:38:43;;;;;;;8.50;6.60;;;;;;;14.66;47.85;99740.92;104863;1268;69849;-80
2023/04/18 09:41:12;;;;;;;;;;;;;;;14.70;47.41;99742.96;105141;1267;72618;-81
2023/04/18 09:43:40;;;;;;;8.10;5.30;;;;;;;14.72;48.38;99737.34;105171;1267;61405;-80
2023/04/18 09:46:08;;;;;;;12.00;7.00;;;;;;;15.09;47.80;99739.88;105120;1273;61236;-80
2023/04/18 09:48:38;;;;;;;10.70;5.90;;;;;;;15.05;47.13;99735.89;105244;1266;75746;-79
2023/04/18 09:51:13;;;;;;;11.00;5.90;;;;;;;15.16;47.34;99732.20;105103;1272;68904;-79
2023/04/18 09:53:46;;;;;;;6.40;4.20;;;;;;;15.23;47.67;99729.84;105114;1271;73790;-78
2023/04/18 09:56:25;;;;;;;6.80;4.80;;;;;;;15.30;46.08;99728.44;105117;1271;61351;-79
2023/04/18 09:58:57;;;;;;;;;;;;;;;15.05;46.15;99719.45;105121;1266;61670;-78
2023/04/18 10:01:26;;;;;;;4.70;3.60;;;;;;;15.00;45.58;99726.84;105104;1269;75218;-77
2023/04/18 10:03:55;;;;;;;11.40;4.00;;;;;;;15.22;44.84;99728.38;105163;1269;69948;-79
2023/04/18 10:06:25;;;;;;;10.80;4.70;;;;;;;15.43;44.69;99727.54;104900;1267;72795;-77
2023/04/18 10:08:53;;;;;;;9.70;4.70;;;;;;;15.72;45.11;99726.77;105037;1271;61255;-77
2023/04/18 10:11:23;;;;;;;8.20;6.40;;;;;;;16.10;44.22;99726.73;105042;1266;61377;-77
2023/04/18 10:13:54;;;;;;;12.50;4.40;;;;;;;16.48;43.67;99728.45;104835;1267;74461;-75
2023/04/18 10:16:22;;;;;;;10.90;5.90;;;;;;;16.46;42.17;99726.09;105035;1270;69732;-76
2023/04/18 10:18:50;;;;;;;11.40;7.50;;;;;;;16.49;42.89;99723.33;104909;1273;73773;-79
2023/04/18 10:21:19;;;;;;;5.00;3.90;;;;;;;16.23;42.27;99721.02;105109;1271;61319;-78
2023/04/18 10:23:47;;;;;;;6.10;3.70;;;;;;;15.97;43.07;99715.16;104763;1276;61591;-79
2023/04/18 10:26:16;;;;;;;11.20;6.10;;;;;;;15.83;43.40;99714.48;104752;1274;74288;-79
2023/04/18 10:28:53;;;;;;;6.40;3.70;;;;;;;15.68;43.74;99713.33;104816;1276;69575;-78
2023/04/18 10:31:26;;;;;;;8.60;4.30;;;;;;;15.25;43.69;99713.05;104764;1270;72386;-78
2023/04/18 10:33:58;;;;;;;8.70;4.80;;;;;;;15.03;45.10;99711.67;104813;1276;61420;-77
2023/04/18 10:36:29;;;;;;;9.10;6.20;;;;;;;14.95;45.29;99710.80;104753;1276;61595;-79
2023/04/18 10:39:02;;;;;;;12.80;6.10;;;;;;;14.76;45.37;99707.11;104760;1271;75428;-79
2023/04/18 10:41:32;;;;;;;15.90;5.70;;;;;;;14.64;45.91;99703.45;104750;1276;69938;-79
2023/04/18 10:44:17;;;;;;;13.70;8.50;;;;;;;14.74;47.10;99712.69;104746;1275;72575;-78
2023/04/18 10:46:51;;;;;;;8.40;4.40;;;;;;;14.82;46.61;99711.30;104883;1276;61134;-76
2023/04/18 10:49:23;;;;;;;6.00;6.20;;;;;;;14.77;46.42;99712.35;108249;1270;60374;-76
2023/04/18 10:52:01;;;;;;;5.50;4.10;;;;;;;14.54;46.86;99706.17;106704;1277;74768;-81
2023/04/18 10:54:37;;;;;;;6.10;4.00;;;;;;;14.35;47.11;99704.81;104865;1270;68331;-76
2023/04/18 10:57:10;;;;;;;7.40;4.30;;;;;;;14.24;47.49;99714.51;104934;1267;73700;-76
2023/04/18 10:59:42;;;;;;;11.30;4.60;;;;;;;14.13;47.87;99710.48;105121;1267;61332;-79
2023/04/18 11:02:23;;;;;;;11.60;5.40;;;;;;;14.17;46.42;99711.29;105269;1266;61310;-78
2023/04/18 11:04:52;;;;;;;13.10;6.50;;;;;;;14.17;45.08;99714.47;105123;1269;73694;-78
2023/04/18 11:07:40;;;;;;;15.40;4.60;;;;;;;14.17;44.95;99715.61;104988;1268;69361;-80
2023/04/18 11:10:08;;;;;;;8.10;4.50;;;;;;;14.19;44.34;99712.63;104997;1267;73395;-78
2023/04/18 11:12:39;;;;;;;5.50;4.00;;;;;;;14.02;44.81;99718.06;105176;1267;61512;-76
2023/04/18 11:15:20;;;;;;;11.30;7.50;;;;;;;14.02;45.53;99716.61;105314;1269;61250;-78
2023/04/18 11:17:57;;;;;;;9.80;6.60;;;;;;;14.20;45.25;99714.73;104972;1273;74779;-77
2023/04/18 11:20:25;;;;;;;14.80;7.20;;;;;;;14.00;44.42;99709.48;105276;1269;69526;-76
2023/04/18 11:22:57;;;;;;;;;;;;;;;13.89;44.18;99706.27;105397;1270;74041;-80
2023/04/18 11:25:26;;;;;;;12.00;6.90;;;;;;;13.90;44.55;99712.14;105039;1270;61431;-79
2023/04/18 11:27:57;;;;;;;11.50;8.10;;;;;;;13.92;44.62;99709.44;105303;1267;61263;-77
2023/04/18 11:30:26;;;;;;;12.90;8.40;;;;;;;13.71;45.66;99713.61;105233;1267;73683;-77
2023/04/18 11:32:54;;;;;;;14.20;8.50;;;;;;;13.72;46.17;99714.15;105105;1267;68949;-78
2023/04/18 11:35:23;;;;;;;8.40;5.30;;;;;;;13.71;46.24;99717.55;105249;1269;73434;-82
2023/04/18 11:37:53;;;;;;;;;;;;;;;13.54;47.20;99721.80;105040;1267;61358;-75
2023/04/18 11:40:21;;;;;;;82.70;38.40;;;;;;;13.36;47.45;99713.55;105269;1269;61240;-76